createdAt,value
2023-04-12T00:00:45.040Z,12.90
2023-04-12T00:03:54.640Z,12.86
2023-04-12T00:07:00.968Z,12.83
2023-04-12T00:10:06.833Z,12.79
2023-04-12T00:13:14.842Z,12.75
2023-04-12T00:16:23.496Z,12.71
2023-04-12T00:19:32.719Z,12.65
2023-04-12T00:22:39.534Z,12.59
2023-04-12T00:25:46.564Z,12.56
2023-04-12T00:28:52.755Z,12.53
2023-04-12T00:31:59.922Z,12.47
2023-04-12T00:35:05.902Z,12.43
2023-04-12T00:38:14.717Z,12.38
2023-04-12T00:41:22.127Z,12.33
2023-04-12T00:44:30.194Z,12.27
2023-04-12T00:47:36.414Z,12.16
2023-04-12T00:50:41.544Z,12.09
2023-04-12T00:53:47.362Z,12.02
2023-04-12T00:56:54.506Z,11.97
2023-04-12T00:59:59.649Z,11.93
2023-04-12T01:03:08.639Z,11.89
2023-04-12T01:06:25.072Z,11.86
2023-04-12T01:09:47.216Z,11.85
2023-04-12T01:13:26.097Z,11.81
2023-04-12T01:16:58.989Z,11.77
2023-04-12T01:20:24.505Z,11.73
2023-04-12T01:24:10.652Z,11.68
2023-04-12T01:27:18.334Z,11.65
2023-04-12T01:30:26.520Z,11.61
2023-04-12T01:33:34.557Z,11.55
2023-04-12T01:36:41.294Z,11.52
2023-04-12T01:39:47.645Z,11.49
2023-04-12T01:42:54.128Z,11.47
2023-04-12T01:45:59.309Z,11.46
2023-04-12T01:49:07.224Z,11.46
2023-04-12T01:52:21.313Z,11.47
2023-04-12T01:55:26.442Z,11.47
2023-04-12T01:58:35.501Z,11.46
2023-04-12T02:01:42.251Z,11.45
2023-04-12T02:04:50.993Z,11.43
2023-04-12T02:07:58.492Z,11.44
2023-04-12T02:11:04.979Z,11.42
2023-04-12T02:14:10.604Z,11.42
2023-04-12T02:17:17.390Z,11.43
2023-04-12T02:20:19.496Z,11.44
2023-04-12T02:23:12.097Z,11.45
2023-04-12T02:26:18.957Z,11.43
2023-04-12T02:29:25.816Z,11.44
2023-04-12T02:32:31.887Z,11.46
2023-04-12T02:35:38.368Z,11.47
2023-04-12T02:38:46.225Z,11.44
2023-04-12T02:41:51.328Z,11.45
2023-04-12T02:44:58.330Z,11.43
2023-04-12T02:48:04.766Z,11.41
2023-04-12T02:51:11.751Z,11.39
2023-04-12T02:54:19.753Z,11.37
2023-04-12T02:57:28.875Z,11.35
2023-04-12T03:00:38.817Z,11.34
2023-04-12T03:03:46.448Z,11.36
2023-04-12T03:07:00.714Z,11.36
2023-04-12T03:10:08.312Z,11.37
2023-04-12T03:13:16.068Z,11.38
2023-04-12T03:16:42.191Z,11.39
2023-04-12T03:19:50.356Z,11.39
2023-04-12T03:22:56.803Z,11.39
2023-04-12T03:26:04.007Z,11.39
2023-04-12T03:29:15.616Z,11.38
2023-04-12T03:32:24.119Z,11.37
2023-04-12T03:35:32.611Z,11.35
2023-04-12T03:38:40.233Z,11.35
2023-04-12T03:41:47.154Z,11.34
2023-04-12T03:44:56.285Z,11.33
2023-04-12T03:48:01.893Z,11.31
2023-04-12T03:51:10.313Z,11.29
2023-04-12T03:54:15.538Z,11.25
2023-04-12T03:57:24.277Z,11.22
2023-04-12T04:00:31.228Z,11.21
2023-04-12T04:03:42.225Z,11.18
2023-04-12T04:06:55.604Z,11.18
2023-04-12T04:10:05.323Z,11.15
2023-04-12T04:13:12.047Z,11.13
2023-04-12T04:16:22.105Z,11.15
2023-04-12T04:19:28.451Z,11.16
2023-04-12T04:22:37.689Z,11.17
2023-04-12T04:25:46.086Z,11.18
2023-04-12T04:28:54.265Z,11.19
2023-04-12T04:32:04.696Z,11.21
2023-04-12T04:35:12.140Z,11.21
2023-04-12T04:38:22.510Z,11.22
2023-04-12T04:41:31.573Z,11.25
2023-04-12T04:44:37.354Z,11.26
2023-04-12T04:47:43.165Z,11.28
2023-04-12T04:50:51.996Z,11.29
2023-04-12T04:53:58.321Z,11.31
2023-04-12T04:57:07.999Z,11.33
2023-04-12T05:00:19.758Z,11.34
2023-04-12T05:03:29.532Z,11.38
2023-04-12T05:06:34.584Z,11.43
2023-04-12T05:09:41.248Z,11.47
2023-04-12T05:12:48.424Z,11.49
2023-04-12T05:15:56.264Z,11.51
2023-04-12T05:19:03.908Z,11.55
2023-04-12T05:22:10.421Z,11.56
2023-04-12T05:25:16.467Z,11.58
2023-04-12T05:28:27.481Z,11.60
2023-04-12T05:31:35.324Z,11.61
2023-04-12T05:34:44.497Z,11.63
2023-04-12T05:37:51.257Z,11.65
2023-04-12T05:40:57.763Z,11.69
2023-04-12T05:44:05.370Z,11.68
2023-04-12T05:47:11.764Z,11.68
2023-04-12T05:50:21.106Z,11.63
2023-04-12T05:53:28.143Z,11.61
2023-04-12T05:56:35.278Z,11.61
2023-04-12T05:59:42.257Z,11.63
2023-04-12T06:02:49.708Z,11.64
2023-04-12T06:05:58.792Z,11.65
2023-04-12T06:09:07.986Z,11.66
2023-04-12T06:12:15.725Z,11.69
2023-04-12T06:15:23.269Z,11.73
2023-04-12T06:18:32.514Z,11.77
2023-04-12T06:21:39.686Z,11.78
2023-04-12T06:24:52.110Z,11.82
2023-04-12T06:27:58.116Z,11.87
2023-04-12T06:31:05.927Z,11.94
2023-04-12T06:34:12.630Z,11.99
2023-04-12T06:37:18.089Z,12.07
2023-04-12T06:40:24.009Z,12.12
2023-04-12T06:43:32.385Z,12.15
2023-04-12T06:46:45.184Z,12.15
2023-04-12T06:49:55.966Z,12.12
2023-04-12T06:53:01.826Z,12.13
2023-04-12T06:56:07.176Z,12.17
2023-04-12T06:59:12.333Z,12.21
2023-04-12T07:02:18.279Z,12.24
2023-04-12T07:05:24.687Z,12.27
2023-04-12T07:08:33.409Z,12.29
2023-04-12T07:11:38.804Z,12.31
2023-04-12T07:14:45.373Z,12.34
2023-04-12T07:17:50.608Z,12.40
2023-04-12T07:20:58.868Z,12.45
2023-04-12T07:24:04.861Z,12.46
2023-04-12T07:27:10.655Z,12.51
2023-04-12T07:30:16.453Z,12.58
2023-04-12T07:33:23.692Z,12.62
2023-04-12T07:36:35.144Z,12.65
2023-04-12T07:39:41.565Z,12.62
2023-04-12T07:42:47.897Z,12.61
2023-04-12T07:45:53.526Z,12.55
2023-04-12T07:48:59.994Z,12.48
2023-04-12T07:52:07.352Z,12.46
2023-04-12T07:55:13.816Z,12.41
2023-04-12T07:58:21.021Z,12.41
2023-04-12T08:01:29.291Z,12.45
2023-04-12T08:04:40.356Z,12.49
2023-04-12T08:07:47.226Z,12.51
2023-04-12T08:10:56.579Z,12.55
2023-04-12T08:14:03.694Z,12.65
2023-04-12T08:17:11.180Z,12.66
2023-04-12T08:20:18.451Z,12.58
2023-04-12T08:23:26.566Z,12.56
2023-04-12T08:26:28.768Z,12.60
2023-04-12T08:29:35.380Z,12.64
2023-04-12T08:32:41.591Z,12.67
2023-04-12T08:35:50.802Z,12.75
2023-04-12T08:38:59.060Z,12.78
2023-04-12T08:42:05.462Z,12.77
2023-04-12T08:45:14.134Z,12.76
2023-04-12T08:48:20.172Z,12.80
2023-04-12T08:51:33.923Z,12.84
2023-04-12T08:54:41.153Z,12.87
2023-04-12T08:57:49.192Z,12.91
2023-04-12T09:00:56.169Z,12.95
2023-04-12T09:04:02.426Z,12.94
2023-04-12T09:07:12.144Z,12.93
2023-04-12T09:10:18.183Z,12.84
2023-04-12T09:13:26.094Z,12.83
2023-04-12T09:16:32.897Z,12.81
2023-04-12T09:19:49.750Z,12.81
2023-04-12T09:22:57.545Z,12.84
2023-04-12T09:26:04.665Z,12.86
2023-04-12T09:29:10.653Z,12.91
2023-04-12T09:32:22.305Z,12.94
2023-04-12T09:35:31.283Z,13.01
2023-04-12T09:38:38.110Z,13.05
2023-04-12T09:41:44.198Z,13.11
2023-04-12T09:44:51.494Z,13.16
2023-04-12T09:47:58.044Z,13.22
2023-04-12T09:51:03.844Z,13.23
2023-04-12T09:54:12.964Z,13.26
2023-04-12T09:57:22.340Z,13.31
2023-04-12T10:00:33.835Z,13.30
2023-04-12T10:03:42.974Z,13.31
2023-04-12T10:06:50.842Z,13.34
2023-04-12T10:09:59.176Z,13.42
2023-04-12T10:13:05.265Z,13.43
2023-04-12T10:16:12.189Z,13.43
2023-04-12T10:19:21.055Z,13.40
2023-04-12T10:22:28.416Z,13.39
2023-04-12T10:25:47.735Z,13.40
2023-04-12T10:29:02.099Z,13.37
2023-04-12T10:32:13.959Z,13.31
2023-04-12T10:35:26.012Z,13.30
2023-04-12T10:38:36.909Z,13.35
2023-04-12T10:41:44.983Z,13.37
2023-04-12T10:44:54.050Z,13.36
2023-04-12T10:48:10.701Z,13.28
2023-04-12T10:51:35.308Z,13.22
2023-04-12T10:54:45.733Z,13.19
2023-04-12T10:58:01.730Z,13.20
2023-04-12T11:01:20.493Z,13.17
2023-04-12T11:04:34.026Z,13.18
2023-04-12T11:07:44.986Z,13.22
2023-04-12T11:11:05.432Z,13.29
2023-04-12T11:14:13.069Z,13.40
2023-04-12T11:17:31.803Z,13.45
2023-04-12T11:20:39.710Z,13.50
2023-04-12T11:23:46.412Z,13.58
2023-04-12T11:26:52.217Z,13.64
2023-04-12T11:30:01.489Z,13.61
2023-04-12T11:33:09.298Z,13.62
2023-04-12T11:36:17.701Z,13.58
2023-04-12T11:39:24.913Z,13.54
2023-04-12T11:42:31.407Z,13.53
2023-04-12T11:45:41.276Z,13.52
2023-04-12T11:48:46.789Z,13.49
2023-04-12T11:51:52.772Z,13.42
2023-04-12T11:55:03.285Z,13.43
2023-04-12T11:58:11.959Z,13.40
2023-04-12T12:01:20.194Z,13.35
2023-04-12T12:04:26.418Z,13.33
2023-04-12T12:07:33.107Z,13.33
2023-04-12T12:10:52.353Z,13.20
2023-04-12T12:14:07.610Z,13.12
2023-04-12T12:17:13.849Z,13.13
2023-04-12T12:20:21.027Z,13.19
2023-04-12T12:23:27.977Z,13.26
2023-04-12T12:26:41.954Z,13.32
2023-04-12T12:29:52.628Z,13.38
2023-04-12T12:32:58.767Z,13.46
2023-04-12T12:36:13.095Z,13.58
2023-04-12T12:39:25.179Z,13.66
2023-04-12T12:42:32.011Z,13.69
2023-04-12T12:45:39.067Z,13.70
2023-04-12T12:48:45.342Z,13.60
2023-04-12T12:51:53.290Z,13.56
2023-04-12T12:54:58.332Z,13.57
2023-04-12T12:58:08.793Z,13.56
2023-04-12T13:01:14.521Z,13.54
2023-04-12T13:04:21.150Z,13.47
2023-04-12T13:07:28.892Z,13.45
2023-04-12T13:10:35.981Z,13.42
2023-04-12T13:13:42.076Z,13.38
2023-04-12T13:16:48.359Z,13.34
2023-04-12T13:19:55.365Z,13.30
2023-04-12T13:23:01.298Z,13.24
2023-04-12T13:26:08.922Z,13.25
2023-04-12T13:29:18.388Z,13.23
2023-04-12T13:32:25.569Z,13.27
2023-04-12T13:35:33.521Z,13.30
2023-04-12T13:38:38.889Z,13.31
2023-04-12T13:41:45.260Z,13.34
2023-04-12T13:44:51.099Z,13.36
2023-04-12T13:47:58.739Z,13.34
2023-04-12T13:51:07.138Z,13.28
2023-04-12T13:54:13.460Z,13.27
2023-04-12T13:57:18.832Z,13.25
2023-04-12T14:00:26.856Z,13.24
2023-04-12T14:03:35.145Z,13.26
2023-04-12T14:06:41.008Z,13.27
2023-04-12T14:09:49.899Z,13.30
2023-04-12T14:12:55.579Z,13.31
2023-04-12T14:16:01.706Z,13.27
2023-04-12T14:19:08.179Z,13.23
2023-04-12T14:22:14.258Z,13.17
2023-04-12T14:25:22.032Z,13.14
2023-04-12T14:28:30.139Z,13.12
2023-04-12T14:31:36.481Z,13.08
2023-04-12T14:34:45.250Z,13.05
2023-04-12T14:37:51.975Z,13.05
2023-04-12T14:41:00.747Z,13.06
2023-04-12T14:44:06.859Z,13.06
2023-04-12T14:47:13.847Z,13.04
2023-04-12T14:50:14.275Z,13.04
2023-04-12T14:53:20.379Z,13.05
2023-04-12T14:56:48.863Z,13.04
2023-04-12T14:59:48.174Z,13.00
2023-04-12T15:02:57.145Z,12.97
2023-04-12T15:06:04.436Z,12.96
2023-04-12T15:09:11.024Z,12.93
2023-04-12T15:12:17.079Z,12.93
2023-04-12T15:15:24.040Z,12.93
2023-04-12T15:18:29.859Z,12.94
2023-04-12T15:21:36.718Z,12.94
2023-04-12T15:24:42.759Z,12.94
2023-04-12T15:27:51.628Z,12.93
2023-04-12T15:30:57.700Z,12.92
2023-04-12T15:34:05.285Z,12.92
2023-04-12T15:37:12.806Z,12.90
2023-04-12T15:40:24.636Z,12.89
2023-04-12T15:43:32.214Z,12.90
2023-04-12T15:46:39.824Z,12.88
2023-04-12T15:49:47.991Z,12.88
2023-04-12T15:52:54.696Z,12.84
2023-04-12T15:56:04.063Z,12.81
2023-04-12T15:59:10.749Z,12.79
2023-04-12T16:02:16.463Z,12.78
2023-04-12T16:05:24.085Z,12.76
2023-04-12T16:08:30.634Z,12.74
2023-04-12T16:11:40.778Z,12.73
2023-04-12T16:14:47.226Z,12.70
2023-04-12T16:17:56.382Z,12.66
2023-04-12T16:21:05.902Z,12.64
2023-04-12T16:24:13.840Z,12.64
2023-04-12T16:27:23.500Z,12.63
2023-04-12T16:30:29.613Z,12.58
2023-04-12T16:33:37.202Z,12.58
2023-04-12T16:36:46.583Z,12.58
2023-04-12T16:39:52.113Z,12.59
2023-04-12T16:42:59.131Z,12.59
2023-04-12T16:46:05.626Z,12.60
2023-04-12T16:49:12.144Z,12.60
2023-04-12T16:52:17.153Z,12.61
2023-04-12T16:55:24.377Z,12.60
2023-04-12T16:58:33.364Z,12.60
2023-04-12T17:01:41.759Z,12.59
2023-04-12T17:04:48.383Z,12.57
2023-04-12T17:07:55.620Z,12.57
2023-04-12T17:11:03.867Z,12.55
2023-04-12T17:14:09.274Z,12.51
2023-04-12T17:17:16.212Z,12.45
2023-04-12T17:20:23.597Z,12.41
2023-04-12T17:23:31.892Z,12.30
2023-04-12T17:26:39.846Z,12.26
2023-04-12T17:29:47.739Z,12.20
2023-04-12T17:32:55.049Z,12.17
2023-04-12T17:36:03.079Z,12.18
2023-04-12T17:39:12.087Z,12.20
2023-04-12T17:42:20.895Z,12.22
2023-04-12T17:45:29.323Z,12.23
2023-04-12T17:48:37.151Z,12.23
2023-04-12T17:51:44.161Z,12.22
2023-04-12T17:54:51.682Z,12.22
2023-04-12T17:57:59.036Z,12.21
2023-04-12T18:01:07.684Z,12.21
2023-04-12T18:04:13.855Z,12.20
2023-04-12T18:07:22.002Z,12.18
2023-04-12T18:10:30.078Z,12.12
2023-04-12T18:13:36.591Z,12.08
2023-04-12T18:16:43.594Z,12.09
2023-04-12T18:19:51.129Z,12.08
2023-04-12T18:22:57.722Z,12.04
2023-04-12T18:26:04.177Z,12.02
2023-04-12T18:29:09.566Z,11.99
2023-04-12T18:32:15.943Z,12.01
2023-04-12T18:35:23.794Z,12.02
2023-04-12T18:38:30.469Z,12.01
2023-04-12T18:41:38.307Z,11.97
2023-04-12T18:44:46.514Z,11.99
2023-04-12T18:47:53.740Z,12.01
2023-04-12T18:51:04.633Z,12.01
2023-04-12T18:54:11.274Z,12.01
2023-04-12T18:57:20.767Z,11.99
2023-04-12T19:00:29.670Z,11.98
2023-04-12T19:03:36.104Z,11.99
2023-04-12T19:06:43.106Z,11.99
2023-04-12T19:09:49.304Z,12.02
2023-04-12T19:12:55.655Z,12.02
2023-04-12T19:16:08.143Z,12.04
2023-04-12T19:19:16.439Z,12.05
2023-04-12T19:22:22.797Z,12.08
2023-04-12T19:25:32.874Z,12.11
2023-04-12T19:28:39.311Z,12.14
2023-04-12T19:31:46.373Z,12.16
2023-04-12T19:34:54.074Z,12.17
2023-04-12T19:38:02.500Z,12.18
2023-04-12T19:41:09.085Z,12.19
2023-04-12T19:44:14.794Z,12.20
2023-04-12T19:47:21.334Z,12.20
2023-04-12T19:50:30.737Z,12.20
2023-04-12T19:53:37.872Z,12.20
2023-04-12T19:56:46.940Z,12.22
2023-04-12T19:59:53.027Z,12.23
2023-04-12T20:03:00.209Z,12.21
2023-04-12T20:06:08.976Z,12.19
2023-04-12T20:09:14.575Z,12.19
2023-04-12T20:12:21.385Z,12.18
2023-04-12T20:15:28.505Z,12.18
2023-04-12T20:18:35.437Z,12.19
2023-04-12T20:21:41.392Z,12.18
2023-04-12T20:24:48.063Z,12.18
2023-04-12T20:27:57.774Z,12.16
2023-04-12T20:31:03.689Z,12.16
2023-04-12T20:34:10.185Z,12.15
2023-04-12T20:37:15.762Z,12.13
2023-04-12T20:40:21.896Z,12.11
2023-04-12T20:43:29.134Z,12.12
2023-04-12T20:46:36.800Z,12.08
2023-04-12T20:49:44.192Z,11.98
2023-04-12T20:52:50.713Z,11.96
2023-04-12T20:55:57.425Z,11.93
2023-04-12T20:59:03.444Z,11.92
2023-04-12T21:03:13.648Z,11.93
2023-04-12T21:06:20.133Z,11.94
2023-04-12T21:09:26.320Z,11.95
2023-04-12T21:12:33.072Z,11.97
2023-04-12T21:15:40.799Z,11.98
2023-04-12T21:18:51.437Z,11.99
2023-04-12T21:21:58.411Z,12.03
2023-04-12T21:25:05.484Z,12.01
2023-04-12T21:28:13.295Z,11.98
2023-04-12T21:31:23.853Z,11.92
2023-04-12T21:34:29.793Z,11.89
2023-04-12T21:37:36.526Z,11.92
2023-04-12T21:40:41.383Z,11.92
2023-04-12T21:43:49.520Z,11.96
2023-04-12T21:46:55.335Z,11.96
2023-04-12T21:50:01.704Z,11.97
2023-04-12T21:53:08.843Z,12.02
2023-04-12T21:56:15.026Z,12.03
2023-04-12T21:59:21.820Z,12.05
2023-04-12T22:02:28.794Z,12.05
2023-04-12T22:05:37.859Z,12.06
2023-04-12T22:08:44.570Z,12.07
2023-04-12T22:11:50.035Z,12.05
2023-04-12T22:14:56.922Z,12.07
2023-04-12T22:18:03.249Z,12.08
2023-04-12T22:21:11.013Z,12.10
2023-04-12T22:24:16.982Z,12.11
2023-04-12T22:27:24.038Z,12.13
2023-04-12T22:30:30.223Z,12.14
2023-04-12T22:33:35.979Z,12.16
2023-04-12T22:36:43.904Z,12.18
2023-04-12T22:39:50.849Z,12.19
2023-04-12T22:42:57.674Z,12.21
2023-04-12T22:46:04.368Z,12.22
2023-04-12T22:49:10.159Z,12.24
2023-04-12T22:52:16.158Z,12.25
2023-04-12T22:55:25.210Z,12.26
2023-04-12T22:58:32.268Z,12.25
2023-04-12T23:01:38.532Z,12.25
2023-04-12T23:04:46.326Z,12.21
2023-04-12T23:07:51.763Z,12.20
2023-04-12T23:10:58.986Z,12.15
2023-04-12T23:14:06.479Z,12.11
2023-04-12T23:17:14.145Z,12.09
2023-04-12T23:20:22.393Z,12.05
2023-04-12T23:23:30.757Z,12.02
2023-04-12T23:26:36.399Z,12.00
2023-04-12T23:29:41.463Z,12.01
2023-04-12T23:32:47.282Z,12.02
2023-04-12T23:35:58.854Z,12.01
2023-04-12T23:39:06.664Z,11.98
2023-04-12T23:42:13.006Z,11.96
2023-04-12T23:45:19.881Z,11.95
2023-04-12T23:48:26.831Z,11.95
2023-04-12T23:51:34.765Z,11.95
2023-04-12T23:54:41.330Z,11.94
2023-04-12T23:57:46.577Z,11.94
